Time;durP1;ratioP1;P1;durP2;ratioP2;P2;SDS_P1;SDS_P2;PMS_P1;PMS_P2;Temp;Humidity;BMP_temperature;BMP_pressure;BME280_temperature;BME280_humidity;BME280_pressure;Samples;Min_cycle;Max_cycle;Signal;HPM_P1;HPM_P2
2022/06/17 00:01:04;;;;;;;17.27;9.27;;;;;;;;;;5094610;28;20145;-74
2022/06/17 00:03:32;;;;;;;18.20;9.75;;;;;;;;;;5102298;28;20058;-76
2022/06/17 00:05:59;;;;;;;19.25;9.88;;;;;;;;;;5094910;28;20088;-74
2022/06/17 00:08:34;;;;;;;16.45;9.85;;;;;;;;;;5092252;28;20357;-74
2022/06/17 00:11:01;;;;;;;16.85;9.88;;;;;;;;;;5092571;28;20198;-74
2022/06/17 00:13:27;;;;;;;;;;;;;;;;;;5092314;28;20044;-74
2022/06/17 00:15:53;;;;;;;16.70;10.02;;;;;;;;;;5109175;28;19923;-74
2022/06/17 00:18:20;;;;;;;16.27;10.00;;;;;;;;;;5106560;28;20491;-74
2022/06/17 00:20:50;;;;;;;17.73;10.60;;;;;;;;;;5108280;28;20066;-74
2022/06/17 00:23:18;;;;;;;17.73;11.60;;;;;;;;;;5092268;28;20047;-74
2022/06/17 00:25:45;;;;;;;17.92;10.82;;;;;;;;;;5105072;28;20085;-74
2022/06/17 00:28:13;;;;;;;18.20;11.82;;;;;;;;;;5103422;28;20043;-74
2022/06/17 00:30:39;;;;;;;17.67;10.90;;;;;;;;;;5093184;28;20490;-74
2022/06/17 00:33:06;;;;;;;20.13;12.07;;;;;;;;;;5095762;28;20054;-74
2022/06/17 00:35:35;;;;;;;22.67;11.57;;;;;;;;;;5099886;28;20471;-73
2022/06/17 00:38:02;;;;;;;21.00;12.82;;;;;;;;;;5110404;28;20062;-74
2022/06/17 00:40:30;;;;;;;17.17;11.50;;;;;;;;;;5111790;28;20055;-74
2022/06/17 00:42:57;;;;;;;20.02;12.60;;;;;;;;;;5092224;28;20138;-74
2022/06/17 00:45:28;;;;;;;21.02;12.57;;;;;;;;;;5088580;28;20044;-72
2022/06/17 00:47:57;;;;;;;20.65;12.57;;;;;;;;;;5092514;28;20048;-73
2022/06/17 00:50:34;;;;;;;20.17;11.82;;;;;;;;;;5092148;28;20040;-73
2022/06/17 00:53:03;;;;;;;20.58;11.40;;;;;;;;;;5093082;28;20200;-75
2022/06/17 00:55:32;;;;;;;20.52;11.00;;;;;;;;;;5092036;28;20047;-73
2022/06/17 00:58:00;;;;;;;18.92;12.20;;;;;;;;;;5112022;28;20497;-73
2022/06/17 01:00:27;;;;;;;19.45;12.95;;;;;;;;;;5110683;28;20127;-73
2022/06/17 01:02:59;;;;;;;20.67;12.70;;;;;;;;;;5111954;28;20139;-73
2022/06/17 01:05:46;;;;;;;17.65;11.85;;;;;;;;;;5110328;28;20135;-73
2022/06/17 01:09:56;;;;;;;20.47;11.67;;;;;;;;;;5112126;28;20051;-71
2022/06/17 01:11:05;;;;;;;21.17;12.23;;;;;;;;;;5091978;28;20048;-71
2022/06/17 01:13:31;;;;;;;20.92;12.43;;;;;;;;;;5091047;28;20102;-77
2022/06/17 01:15:57;;;;;;;20.73;11.98;;;;;;;;;;5092327;28;20079;-74
2022/06/17 01:18:23;;;;;;;19.95;11.70;;;;;;;;;;5111069;28;20109;-73
2022/06/17 01:20:54;;;;;;;18.42;10.95;;;;;;;;;;5092354;28;20138;-73
2022/06/17 01:23:22;;;;;;;20.13;11.65;;;;;;;;;;5091245;28;20063;-74
2022/06/17 01:25:48;;;;;;;19.35;12.25;;;;;;;;;;5108685;28;20379;-74
2022/06/17 01:28:17;;;;;;;17.42;11.10;;;;;;;;;;5111296;28;20103;-72
2022/06/17 01:30:45;;;;;;;18.92;10.93;;;;;;;;;;5109721;28;20130;-73
2022/06/17 01:33:14;;;;;;;16.80;10.48;;;;;;;;;;5111844;28;20043;-73
2022/06/17 01:35:48;;;;;;;19.02;11.13;;;;;;;;;;5110088;28;20159;-72
2022/06/17 01:38:14;;;;;;;18.23;11.18;;;;;;;;;;5110128;28;20104;-73
2022/06/17 01:40:40;;;;;;;;;;;;;;;;;;5109693;28;20058;-73
2022/06/17 01:43:08;;;;;;;17.80;11.35;;;;;;;;;;5110775;28;19919;-72
2022/06/17 01:45:41;;;;;;;16.58;11.02;;;;;;;;;;5092044;28;20152;-73
2022/06/17 01:48:08;;;;;;;19.15;10.50;;;;;;;;;;5099392;28;20043;-74
2022/06/17 01:50:35;;;;;;;19.92;10.88;;;;;;;;;;5102973;28;20047;-73
2022/06/17 01:53:03;;;;;;;16.52;10.10;;;;;;;;;;5110556;28;20508;-73
2022/06/17 01:55:32;;;;;;;16.00;10.00;;;;;;;;;;5108278;28;20040;-74
2022/06/17 01:58:02;;;;;;;16.30;10.43;;;;;;;;;;5110180;28;20065;-71
2022/06/17 02:00:29;;;;;;;19.60;10.73;;;;;;;;;;5109758;28;20047;-72
2022/06/17 02:03:09;;;;;;;18.25;10.20;;;;;;;;;;5111302;28;20051;-73
2022/06/17 02:05:36;;;;;;;20.42;10.57;;;;;;;;;;5108160;28;20048;-73
2022/06/17 02:08:03;;;;;;;16.73;9.85;;;;;;;;;;5109808;28;20051;-73
2022/06/17 02:10:32;;;;;;;17.13;9.95;;;;;;;;;;5108845;28;20135;-74
2022/06/17 02:12:58;;;;;;;21.25;10.20;;;;;;;;;;5110063;28;20091;-74
2022/06/17 02:15:25;;;;;;;16.40;9.35;;;;;;;;;;5108274;28;20051;-73
2022/06/17 02:17:52;;;;;;;16.88;9.50;;;;;;;;;;5110686;28;20051;-72
2022/06/17 02:20:18;;;;;;;18.20;10.02;;;;;;;;;;5104531;28;20123;-72
2022/06/17 02:22:45;;;;;;;16.70;9.82;;;;;;;;;;5089994;28;20147;-73
2022/06/17 02:25:13;;;;;;;16.35;9.80;;;;;;;;;;5090084;28;20090;-72
2022/06/17 02:27:41;;;;;;;18.00;10.18;;;;;;;;;;5089708;28;20129;-73
2022/06/17 02:30:08;;;;;;;16.35;9.60;;;;;;;;;;5103777;28;20066;-73
2022/06/17 02:32:34;;;;;;;17.20;10.07;;;;;;;;;;5091240;28;20044;-80
2022/06/17 02:35:11;;;;;;;17.15;8.63;;;;;;;;;;5072957;28;20119;-71
2022/06/17 02:37:37;;;;;;;15.18;8.82;;;;;;;;;;5087936;28;20109;-72
2022/06/17 02:40:04;;;;;;;15.63;9.05;;;;;;;;;;5092085;28;20044;-72
2022/06/17 02:42:36;;;;;;;18.38;9.43;;;;;;;;;;5110044;28;20154;-73
2022/06/17 02:45:07;;;;;;;17.73;8.48;;;;;;;;;;5108547;28;20467;-72
2022/06/17 02:47:33;;;;;;;15.65;8.25;;;;;;;;;;5077516;28;20094;-72
2022/06/17 02:49:59;;;;;;;19.95;9.25;;;;;;;;;;5108709;28;20075;-72
2022/06/17 02:52:25;;;;;;;;;;;;;;;;;;5092548;28;20067;-72
2022/06/17 02:54:57;;;;;;;15.63;8.20;;;;;;;;;;5087476;28;19923;-71
2022/06/17 02:57:28;;;;;;;15.52;8.52;;;;;;;;;;5110227;28;20084;-71
2022/06/17 02:59:58;;;;;;;15.00;8.45;;;;;;;;;;5110014;28;20050;-71
2022/06/17 03:02:30;;;;;;;15.52;8.23;;;;;;;;;;5109485;28;20051;-72
2022/06/17 03:04:56;;;;;;;16.75;7.90;;;;;;;;;;5073123;28;20159;-71
2022/06/17 03:07:24;;;;;;;16.77;7.65;;;;;;;;;;5109087;28;20436;-71
2022/06/17 03:09:50;;;;;;;16.52;8.85;;;;;;;;;;5108296;28;20069;-71
2022/06/17 03:12:19;;;;;;;14.93;8.43;;;;;;;;;;5108144;28;20126;-71
2022/06/17 03:15:04;;;;;;;15.27;7.53;;;;;;;;;;5106347;28;20108;-72
2022/06/17 03:17:30;;;;;;;15.63;7.85;;;;;;;;;;5108141;28;20151;-72
2022/06/17 03:20:00;;;;;;;15.93;8.02;;;;;;;;;;5106894;28;20035;-72
2022/06/17 03:22:26;;;;;;;12.35;7.60;;;;;;;;;;5074428;28;20048;-72
2022/06/17 03:25:08;;;;;;;16.58;7.68;;;;;;;;;;5110396;28;20110;-72
2022/06/17 03:27:39;;;;;;;14.55;7.90;;;;;;;;;;5112007;28;20047;-73
2022/06/17 03:30:05;;;;;;;12.45;7.28;;;;;;;;;;5111449;28;20043;-72
2022/06/17 03:32:35;;;;;;;15.07;7.70;;;;;;;;;;5112032;28;20104;-71
2022/06/17 03:35:01;;;;;;;14.50;7.47;;;;;;;;;;5110642;28;20058;-73
2022/06/17 03:37:30;;;;;;;14.18;7.68;;;;;;;;;;5112246;28;20055;-71
2022/06/17 03:40:03;;;;;;;14.43;6.93;;;;;;;;;;5100890;28;20409;-74
2022/06/17 03:42:40;;;;;;;14.27;7.25;;;;;;;;;;5091273;28;20084;-73
2022/06/17 03:45:13;;;;;;;13.80;7.22;;;;;;;;;;5091312;28;20111;-72
2022/06/17 03:47:57;;;;;;;16.27;7.00;;;;;;;;;;5110481;28;20051;-72
2022/06/17 03:50:32;;;;;;;12.70;6.55;;;;;;;;;;5111137;28;20093;-72
2022/06/17 03:53:00;;;;;;;14.18;7.13;;;;;;;;;;5111176;28;20322;-76
2022/06/17 03:55:28;;;;;;;13.70;7.13;;;;;;;;;;5091812;28;20150;-74
2022/06/17 03:57:56;;;;;;;14.90;7.13;;;;;;;;;;5092806;28;20321;-71
2022/06/17 04:00:22;;;;;;;19.13;7.05;;;;;;;;;;5105229;28;20555;-70
2022/06/17 04:02:49;;;;;;;16.27;6.85;;;;;;;;;;5091818;28;20095;-72
2022/06/17 04:05:16;;;;;;;13.70;6.80;;;;;;;;;;5092567;28;20483;-73
2022/06/17 04:07:43;;;;;;;15.98;7.22;;;;;;;;;;5108349;28;20184;-72
2022/06/17 04:10:22;;;;;;;16.13;7.20;;;;;;;;;;5111592;28;20048;-71
2022/06/17 04:12:49;;;;;;;14.52;6.85;;;;;;;;;;5111146;28;20130;-71
2022/06/17 04:15:18;;;;;;;14.05;7.03;;;;;;;;;;5112008;28;20056;-73
2022/06/17 04:17:48;;;;;;;13.55;7.28;;;;;;;;;;5110527;28;20048;-71
2022/06/17 04:20:27;;;;;;;12.00;6.57;;;;;;;;;;5111926;28;20044;-70
2022/06/17 04:22:55;;;;;;;14.02;7.10;;;;;;;;;;5091451;28;20052;-70
2022/06/17 04:25:28;;;;;;;21.08;7.00;;;;;;;;;;5092054;28;20158;-71
2022/06/17 04:27:59;;;;;;;18.50;6.72;;;;;;;;;;5109218;28;20220;-72
2022/06/17 04:30:28;;;;;;;15.20;7.03;;;;;;;;;;5102883;28;20067;-72
2022/06/17 04:32:57;;;;;;;13.32;6.78;;;;;;;;;;5105882;28;20048;-72
2022/06/17 04:35:23;;;;;;;15.55;7.78;;;;;;;;;;5109073;28;20053;-72
2022/06/17 04:37:49;;;;;;;12.25;6.82;;;;;;;;;;5107420;28;20119;-71
2022/06/17 04:40:27;;;;;;;16.73;7.15;;;;;;;;;;5090448;28;20108;-72
2022/06/17 04:42:54;;;;;;;13.00;6.80;;;;;;;;;;5109346;28;20113;-74
2022/06/17 04:45:24;;;;;;;14.30;6.68;;;;;;;;;;5090186;28;20070;-71
2022/06/17 04:47:51;;;;;;;15.20;6.45;;;;;;;;;;5102749;28;20047;-72
2022/06/17 04:50:18;;;;;;;15.63;6.80;;;;;;;;;;5110685;28;20171;-73
2022/06/17 04:52:45;;;;;;;14.20;6.53;;;;;;;;;;5108801;28;20088;-73
2022/06/17 04:55:21;;;;;;;15.55;7.50;;;;;;;;;;5091116;28;20345;-77
2022/06/17 04:57:50;;;;;;;16.10;6.68;;;;;;;;;;5107905;28;20563;-81
2022/06/17 05:00:26;;;;;;;15.93;6.70;;;;;;;;;;5109756;28;20393;-73
2022/06/17 05:02:52;;;;;;;17.45;6.80;;;;;;;;;;5089800;28;20059;-74
2022/06/17 05:05:28;;;;;;;11.07;5.97;;;;;;;;;;5109220;28;20083;-72
2022/06/17 05:07:54;;;;;;;15.27;6.70;;;;;;;;;;5107170;28;20075;-73
2022/06/17 05:10:25;;;;;;;14.18;7.03;;;;;;;;;;5108837;28;20050;-74
2022/06/17 05:13:00;;;;;;;14.48;7.00;;;;;;;;;;5108209;28;20073;-74
2022/06/17 05:15:27;;;;;;;14.50;7.05;;;;;;;;;;5108756;28;20461;-79
2022/06/17 05:17:54;;;;;;;15.30;6.78;;;;;;;;;;5106686;28;20475;-74
2022/06/17 05:20:22;;;;;;;14.50;6.22;;;;;;;;;;5101860;28;20039;-74
2022/06/17 05:22:48;;;;;;;15.10;6.78;;;;;;;;;;5109369;27;20047;-74
2022/06/17 05:25:19;;;;;;;14.68;7.10;;;;;;;;;;5103751;28;20059;-73
2022/06/17 05:27:45;;;;;;;16.42;7.03;;;;;;;;;;5106770;28;20063;-80
2022/06/17 05:30:12;;;;;;;17.30;6.70;;;;;;;;;;5100789;28;20082;-79
2022/06/17 05:32:39;;;;;;;15.80;7.68;;;;;;;;;;5108623;27;20485;-75
2022/06/17 05:35:06;;;;;;;14.30;7.57;;;;;;;;;;5089529;28;20455;-76
2022/06/17 05:37:31;;;;;;;;;;;;;;;;;;5107719;28;20044;-75
2022/06/17 05:39:59;;;;;;;20.27;7.40;;;;;;;;;;5115185;27;20287;-76
2022/06/17 05:42:27;;;;;;;12.60;6.72;;;;;;;;;;5108331;28;20062;-83
2022/06/17 05:44:53;;;;;;;15.55;7.55;;;;;;;;;;5107081;28;20063;-81
2022/06/17 05:47:19;;;;;;;;;;;;;;;;;;5106615;28;20116;-75
2022/06/17 05:49:45;;;;;;;14.27;7.05;;;;;;;;;;5106735;28;19927;-73
2022/06/17 05:52:11;;;;;;;13.48;7.28;;;;;;;;;;5106341;28;20079;-77
2022/06/17 05:54:37;;;;;;;;;;;;;;;;;;5104889;28;20063;-74
2022/06/17 05:57:04;;;;;;;17.83;8.30;;;;;;;;;;5106503;28;19923;-73
2022/06/17 05:59:30;;;;;;;13.10;7.65;;;;;;;;;;5110335;27;20047;-77
2022/06/17 06:01:56;;;;;;;15.70;7.55;;;;;;;;;;5106319;27;20063;-69
2022/06/17 06:04:22;;;;;;;15.60;7.53;;;;;;;;;;5095696;28;20133;-74
2022/06/17 06:06:48;;;;;;;;;;;;;;;;;;5093815;28;20099;-68
2022/06/17 06:09:14;;;;;;;15.20;7.75;;;;;;;;;;5089229;28;19968;-73
2022/06/17 06:11:40;;;;;;;15.73;7.88;;;;;;;;;;5095704;28;20105;-67
2022/06/17 06:14:07;;;;;;;15.63;7.43;;;;;;;;;;5086574;28;20047;-69
2022/06/17 06:16:34;;;;;;;19.55;7.72;;;;;;;;;;5093915;28;20175;-70
2022/06/17 06:19:00;;;;;;;14.00;7.22;;;;;;;;;;5082171;28;20047;-67
2022/06/17 06:21:26;;;;;;;;;;;;;;;;;;5106620;28;20134;-71
2022/06/17 06:23:56;;;;;;;15.77;7.15;;;;;;;;;;5107110;28;20030;-69
2022/06/17 06:26:22;;;;;;;19.90;7.80;;;;;;;;;;5106578;28;20104;-68
2022/06/17 06:28:48;;;;;;;17.38;7.32;;;;;;;;;;5099946;28;20549;-74
2022/06/17 06:31:32;;;;;;;18.25;7.45;;;;;;;;;;5098828;28;20048;-71
2022/06/17 06:33:58;;;;;;;17.77;8.18;;;;;;;;;;5088342;28;20055;-84
2022/06/17 06:36:24;;;;;;;;;;;;;;;;;;5088157;28;20116;-68
2022/06/17 06:38:51;;;;;;;14.77;7.50;;;;;;;;;;5102295;28;19927;-70
2022/06/17 06:41:17;;;;;;;;;;;;;;;;;;5091757;28;20103;-71
2022/06/17 06:43:44;;;;;;;13.63;7.45;;;;;;;;;;5105542;28;20014;-72
2022/06/17 06:46:11;;;;;;;17.08;8.18;;;;;;;;;;5102550;28;20483;-73
2022/06/17 06:48:38;;;;;;;20.92;8.82;;;;;;;;;;5106539;28;20119;-69
2022/06/17 06:51:04;;;;;;;16.30;7.28;;;;;;;;;;5106365;28;20047;-77
2022/06/17 06:53:30;;;;;;;20.17;8.55;;;;;;;;;;5107138;28;20190;-71
2022/06/17 06:55:56;;;;;;;14.73;8.05;;;;;;;;;;5107591;28;20093;-67
2022/06/17 06:58:23;;;;;;;17.42;8.32;;;;;;;;;;5111131;28;20047;-68
2022/06/17 07:00:54;;;;;;;19.63;8.00;;;;;;;;;;5111179;28;20135;-68
2022/06/17 07:03:21;;;;;;;15.38;8.00;;;;;;;;;;5111907;28;20055;-71
2022/06/17 07:05:49;;;;;;;17.73;8.27;;;;;;;;;;5112838;28;20082;-71
2022/06/17 07:08:16;;;;;;;16.63;8.25;;;;;;;;;;5111363;28;20142;-68
2022/06/17 07:10:47;;;;;;;18.77;8.43;;;;;;;;;;5111360;28;20058;-74
2022/06/17 07:13:13;;;;;;;17.67;8.60;;;;;;;;;;5111175;28;20052;-68
2022/06/17 07:15:39;;;;;;;;;;;;;;;;;;5094038;28;20132;-86
2022/06/17 07:18:11;;;;;;;14.50;8.13;;;;;;;;;;5111248;28;19984;-72
2022/06/17 07:20:42;;;;;;;16.58;7.72;;;;;;;;;;5112095;28;20044;-78
2022/06/17 07:23:10;;;;;;;16.80;7.88;;;;;;;;;;5093091;28;20475;-81
2022/06/17 07:25:36;;;;;;;15.70;7.95;;;;;;;;;;5111775;28;20040;-82
2022/06/17 07:28:03;;;;;;;;;;;;;;;;;;5112193;28;20197;-72
2022/06/17 07:30:29;;;;;;;19.20;7.88;;;;;;;;;;5110838;28;19924;-68
2022/06/17 07:32:55;;;;;;;13.95;7.88;;;;;;;;;;5111507;28;20409;-68
2022/06/17 07:35:22;;;;;;;16.00;7.90;;;;;;;;;;5111095;28;20424;-67
2022/06/17 07:40:33;;;;;;;18.13;8.45;;;;;;;;;;5111131;28;20150;-68
2022/06/17 07:42:59;;;;;;;14.00;8.05;;;;;;;;;;5092643;28;20105;-73
2022/06/17 07:45:27;;;;;;;16.50;7.40;;;;;;;;;;5110399;28;20093;-71
2022/06/17 07:47:53;;;;;;;15.50;7.45;;;;;;;;;;5110735;28;20043;-73
2022/06/17 07:50:22;;;;;;;16.52;7.95;;;;;;;;;;5110372;28;20094;-74
2022/06/17 07:52:48;;;;;;;17.63;8.02;;;;;;;;;;5112316;28;20052;-70
2022/06/17 07:55:15;;;;;;;17.30;8.25;;;;;;;;;;5110736;28;20050;-70
2022/06/17 07:57:42;;;;;;;17.88;8.55;;;;;;;;;;5110419;28;20118;-70
2022/06/17 08:00:09;;;;;;;17.00;8.18;;;;;;;;;;5110108;28;20416;-69
2022/06/17 08:02:36;;;;;;;14.27;7.75;;;;;;;;;;5091770;28;20059;-70
2022/06/17 08:05:02;;;;;;;16.42;8.18;;;;;;;;;;5110332;28;20153;-72
2022/06/17 08:07:30;;;;;;;15.35;8.38;;;;;;;;;;5110372;28;20056;-69
2022/06/17 08:09:57;;;;;;;19.35;8.00;;;;;;;;;;5110300;28;20095;-67
2022/06/17 08:12:23;;;;;;;;;;;;;;;;;;5110957;28;20206;-69
2022/06/17 08:14:49;;;;;;;16.67;8.50;;;;;;;;;;5111284;28;20010;-70
2022/06/17 08:17:18;;;;;;;18.20;9.05;;;;;;;;;;5110820;28;20069;-70
2022/06/17 08:19:44;;;;;;;;;;;;;;;;;;5110158;28;20494;-70
2022/06/17 08:22:11;;;;;;;20.30;9.20;;;;;;;;;;5110989;28;20031;-72
2022/06/17 08:24:37;;;;;;;23.30;9.38;;;;;;;;;;5109696;28;20055;-72
2022/06/17 08:27:03;;;;;;;;;;;;;;;;;;5110529;28;20127;-71
2022/06/17 08:29:30;;;;;;;27.38;9.52;;;;;;;;;;5109502;28;19919;-67
2022/06/17 08:32:44;;;;;;;16.38;8.43;;;;;;;;;;5109247;28;20043;-71
2022/06/17 08:34:42;;;;;;;16.33;8.20;;;;;;;;;;5109664;28;20062;-68
2022/06/17 08:37:08;;;;;;;20.27;9.35;;;;;;;;;;5091939;28;20120;-68
2022/06/17 08:39:34;;;;;;;;;;;;;;;;;;5109655;28;20127;-69
2022/06/17 08:42:16;;;;;;;17.33;8.55;;;;;;;;;;5109604;28;20028;-68
2022/06/17 08:45:09;;;;;;;20.88;9.15;;;;;;;;;;5090916;28;20051;-68
2022/06/17 08:47:43;;;;;;;19.98;8.65;;;;;;;;;;5105396;28;20066;-67
2022/06/17 08:50:12;;;;;;;17.33;8.65;;;;;;;;;;5109224;28;20131;-68
2022/06/17 08:53:05;;;;;;;20.95;8.27;;;;;;;;;;5109075;28;20044;-77
2022/06/17 08:55:37;;;;;;;20.83;8.73;;;;;;;;;;5110083;28;20061;-74
2022/06/17 08:58:16;;;;;;;18.20;8.50;;;;;;;;;;5110528;28;20192;-71
2022/06/17 09:01:06;;;;;;;15.45;8.70;;;;;;;;;;5109114;28;20516;-72
2022/06/17 09:03:38;;;;;;;20.35;8.40;;;;;;;;;;5079743;28;20489;-77
2022/06/17 09:06:04;;;;;;;20.15;8.57;;;;;;;;;;5109424;28;20352;-82
2022/06/17 09:08:36;;;;;;;20.67;9.07;;;;;;;;;;5108887;28;20045;-78
2022/06/17 09:11:11;;;;;;;16.42;7.90;;;;;;;;;;5109330;28;20071;-87
2022/06/17 09:13:56;;;;;;;25.23;8.00;;;;;;;;;;5108710;28;20538;-80
2022/06/17 09:16:38;;;;;;;19.60;7.75;;;;;;;;;;5108683;28;20129;-86
2022/06/17 09:19:06;;;;;;;15.70;7.82;;;;;;;;;;5109253;28;20055;-81
2022/06/17 09:21:47;;;;;;;24.50;7.63;;;;;;;;;;5107604;28;20508;-77
2022/06/17 09:24:16;;;;;;;17.77;7.22;;;;;;;;;;5090989;28;20048;-77
2022/06/17 09:26:54;;;;;;;15.77;8.38;;;;;;;;;;5108945;28;20043;-72
2022/06/17 09:29:23;;;;;;;21.17;8.57;;;;;;;;;;5109047;28;20047;-79
2022/06/17 09:31:59;;;;;;;20.30;7.35;;;;;;;;;;5108784;28;20036;-71
2022/06/17 09:34:33;;;;;;;16.55;6.93;;;;;;;;;;5089834;28;20047;-74
2022/06/17 09:36:59;;;;;;;14.23;6.97;;;;;;;;;;5109049;28;20055;-69
2022/06/17 09:39:29;;;;;;;15.60;7.25;;;;;;;;;;5108539;28;20055;-76
2022/06/17 09:42:07;;;;;;;14.45;6.40;;;;;;;;;;5090747;28;20128;-76
2022/06/17 09:44:39;;;;;;;18.85;7.20;;;;;;;;;;5108289;28;20074;-72
2022/06/17 09:47:14;;;;;;;17.80;6.97;;;;;;;;;;5108593;28;20075;-70
2022/06/17 09:49:43;;;;;;;17.42;7.15;;;;;;;;;;5108507;28;20451;-77
2022/06/17 09:52:12;;;;;;;15.07;6.97;;;;;;;;;;5108869;28;20108;-87
2022/06/17 09:54:53;;;;;;;12.63;6.40;;;;;;;;;;5072658;28;20112;-73
2022/06/17 09:57:40;;;;;;;15.05;6.65;;;;;;;;;;5109822;28;20047;-75
2022/06/17 10:00:09;;;;;;;17.30;7.38;;;;;;;;;;5090258;28;20083;-74
2022/06/17 10:02:44;;;;;;;16.42;6.70;;;;;;;;;;5108159;28;20120;-75
2022/06/17 10:05:13;;;;;;;16.50;6.93;;;;;;;;;;5108242;28;20115;-77
2022/06/17 10:08:02;;;;;;;14.93;6.68;;;;;;;;;;5073258;28;20107;-70
2022/06/17 10:10:33;;;;;;;13.15;6.82;;;;;;;;;;5096985;28;20047;-71
2022/06/17 10:13:02;;;;;;;17.13;6.00;;;;;;;;;;5109198;28;20047;-70
2022/06/17 10:15:37;;;;;;;17.50;5.80;;;;;;;;;;5107630;28;20471;-76
2022/06/17 10:18:43;;;;;;;14.98;6.30;;;;;;;;;;5108244;28;20086;-75
2022/06/17 10:21:14;;;;;;;12.77;5.53;;;;;;;;;;5024777;28;20060;-80
2022/06/17 10:23:47;;;;;;;11.75;5.68;;;;;;;;;;5024126;28;20155;-71
2022/06/17 10:26:19;;;;;;;13.85;5.68;;;;;;;;;;5071722;28;20139;-68
2022/06/17 10:28:46;;;;;;;15.00;5.18;;;;;;;;;;5106636;28;20051;-78
2022/06/17 10:31:24;;;;;;;13.48;5.47;;;;;;;;;;5089134;28;20047;-74
2022/06/17 10:33:50;;;;;;;11.95;5.32;;;;;;;;;;5089548;28;20798;-73
2022/06/17 10:36:17;;;;;;;12.75;5.65;;;;;;;;;;5107935;28;20043;-71
2022/06/17 10:38:46;;;;;;;12.02;5.25;;;;;;;;;;5107233;28;20148;-72
2022/06/17 10:41:12;;;;;;;15.57;5.57;;;;;;;;;;5107715;28;20050;-73
2022/06/17 10:43:44;;;;;;;13.00;5.78;;;;;;;;;;5087421;28;20329;-73
2022/06/17 10:46:19;;;;;;;13.32;5.07;;;;;;;;;;5088110;28;20048;-71
2022/06/17 10:48:50;;;;;;;12.40;5.68;;;;;;;;;;5087537;28;20146;-71
2022/06/17 10:51:17;;;;;;;12.75;5.40;;;;;;;;;;5087545;28;20085;-74
2022/06/17 10:53:51;;;;;;;17.27;5.80;;;;;;;;;;5087139;28;20044;-78
2022/06/17 10:56:23;;;;;;;17.08;6.07;;;;;;;;;;5087471;28;20044;-70
2022/06/17 10:59:00;;;;;;;12.35;6.03;;;;;;;;;;5052312;28;20047;-83
2022/06/17 11:01:46;;;;;;;15.50;6.32;;;;;;;;;;5088253;28;20079;-82
2022/06/17 11:04:20;;;;;;;19.42;6.07;;;;;;;;;;5088014;28;20139;-80
2022/06/17 11:06:51;;;;;;;12.93;5.93;;;;;;;;;;5087342;28;20419;-82
2022/06/17 11:09:23;;;;;;;13.93;5.97;;;;;;;;;;5087169;28;20143;-84
2022/06/17 11:12:10;;;;;;;15.73;5.75;;;;;;;;;;5087074;28;20059;-83
2022/06/17 11:14:39;;;;;;;11.80;5.85;;;;;;;;;;5069442;28;20051;-80
2022/06/17 11:17:17;;;;;;;17.33;6.10;;;;;;;;;;5087536;28;20092;-78
2022/06/17 11:19:44;;;;;;;14.32;6.13;;;;;;;;;;5086461;28;20101;-81
2022/06/17 11:22:25;;;;;;;18.00;6.38;;;;;;;;;;5086708;28;20083;-78
2022/06/17 11:24:53;;;;;;;13.35;6.10;;;;;;;;;;5086160;28;20048;-78
2022/06/17 11:27:23;;;;;;;17.42;6.47;;;;;;;;;;5069051;28;20087;-78
2022/06/17 11:29:50;;;;;;;17.63;6.80;;;;;;;;;;5068383;28;20123;-74
2022/06/17 11:32:20;;;;;;;18.30;7.45;;;;;;;;;;5087348;28;20048;-75
2022/06/17 11:35:09;;;;;;;15.32;7.65;;;;;;;;;;5086892;28;20055;-78
2022/06/17 11:37:36;;;;;;;14.02;6.78;;;;;;;;;;5078581;28;20059;-74
2022/06/17 11:40:09;;;;;;;14.15;7.18;;;;;;;;;;5086889;28;20166;-72
2022/06/17 11:42:35;;;;;;;15.60;7.32;;;;;;;;;;5086330;28;20095;-73
2022/06/17 11:45:02;;;;;;;15.63;6.90;;;;;;;;;;5089705;28;20044;-75
2022/06/17 11:47:30;;;;;;;17.45;6.50;;;;;;;;;;5090718;28;20077;-74
2022/06/17 11:50:13;;;;;;;13.20;7.20;;;;;;;;;;5073946;28;20091;-73
2022/06/17 11:52:39;;;;;;;13.25;7.25;;;;;;;;;;5090329;28;20083;-78
2022/06/17 11:55:06;;;;;;;16.05;7.07;;;;;;;;;;5090069;28;20463;-78
2022/06/17 11:57:37;;;;;;;16.58;6.03;;;;;;;;;;5089894;28;20066;-75
2022/06/17 12:00:36;;;;;;;15.60;6.72;;;;;;;;;;5089750;28;20089;-78
2022/06/17 12:03:02;;;;;;;16.55;6.63;;;;;;;;;;5055484;28;20353;-78
2022/06/17 12:05:30;;;;;;;15.18;7.05;;;;;;;;;;5072115;28;20117;-81
2022/06/17 12:07:58;;;;;;;23.95;7.32;;;;;;;;;;5089804;28;20502;-72
2022/06/17 12:10:33;;;;;;;17.73;6.60;;;;;;;;;;5090259;28;20170;-80
2022/06/17 12:13:17;;;;;;;12.82;5.97;;;;;;;;;;5090252;28;20278;-82
2022/06/17 12:15:46;;;;;;;15.40;6.82;;;;;;;;;;5090076;28;20380;-70
2022/06/17 12:18:20;;;;;;;14.45;6.40;;;;;;;;;;5089486;28;20069;-71
2022/06/17 12:20:46;;;;;;;12.50;5.43;;;;;;;;;;5089299;28;20054;-72
2022/06/17 12:23:12;;;;;;;;;;;;;;;;;;5090504;28;20458;-71
2022/06/17 12:26:01;;;;;;;17.30;6.68;;;;;;;;;;5071585;28;20027;-72
2022/06/17 12:28:27;;;;;;;15.60;6.35;;;;;;;;;;5063612;28;20052;-69
2022/06/17 12:31:03;;;;;;;17.67;6.50;;;;;;;;;;5071149;28;20493;-69
2022/06/17 12:33:38;;;;;;;13.23;6.07;;;;;;;;;;5090466;28;20151;-71
2022/06/17 12:36:08;;;;;;;15.15;6.18;;;;;;;;;;5090079;28;20495;-70
2022/06/17 12:38:40;;;;;;;13.00;5.75;;;;;;;;;;5091525;28;20083;-69
2022/06/17 12:41:22;;;;;;;15.88;6.07;;;;;;;;;;5089769;28;20051;-71
2022/06/17 12:44:07;;;;;;;14.00;5.63;;;;;;;;;;5071767;28;20051;-73
2022/06/17 12:46:37;;;;;;;11.73;5.72;;;;;;;;;;5090274;28;20075;-70
2022/06/17 12:54:41;;;;;;;17.80;6.50;;;;;;;;;;5080814;28;20090;-72
2022/06/17 12:57:07;;;;;;;14.40;5.90;;;;;;;;;;5071392;28;20055;-69
2022/06/17 12:59:36;;;;;;;13.57;6.00;;;;;;;;;;5078695;28;20076;-71
2022/06/17 13:02:12;;;;;;;11.93;6.07;;;;;;;;;;5080458;28;20217;-72
2022/06/17 13:04:38;;;;;;;17.63;6.20;;;;;;;;;;5082361;28;20040;-70
2022/06/17 13:07:04;;;;;;;;;;;;;;;;;;5085096;28;20130;-72
2022/06/17 13:09:39;;;;;;;17.40;7.23;;;;;;;;;;5078291;28;20364;-74
2022/06/17 13:12:20;;;;;;;17.40;7.13;;;;;;;;;;5069115;28;20120;-73
2022/06/17 13:15:04;;;;;;;13.48;6.80;;;;;;;;;;5075810;28;20043;-71
2022/06/17 13:17:42;;;;;;;16.50;6.93;;;;;;;;;;5087859;28;20056;-70
2022/06/17 13:20:17;;;;;;;13.32;5.72;;;;;;;;;;5092830;28;20036;-73
2022/06/17 13:22:45;;;;;;;12.68;6.22;;;;;;;;;;5085865;28;20051;-73
2022/06/17 13:25:22;;;;;;;18.45;6.15;;;;;;;;;;5090668;28;20048;-75
2022/06/17 13:27:48;;;;;;;;;;;;;;;;;;5081705;28;20055;-72
2022/06/17 13:30:24;;;;;;;16.20;6.85;;;;;;;;;;5070800;28;19923;-73
2022/06/17 13:32:57;;;;;;;15.15;6.70;;;;;;;;;;5074271;28;20448;-71
2022/06/17 13:35:23;;;;;;;15.32;6.65;;;;;;;;;;5082628;28;20052;-73
2022/06/17 13:37:56;;;;;;;20.92;6.93;;;;;;;;;;5083655;28;20055;-75
2022/06/17 13:40:35;;;;;;;16.35;6.53;;;;;;;;;;5067797;28;20082;-74
2022/06/17 13:43:05;;;;;;;12.15;5.95;;;;;;;;;;5069470;28;20056;-72
2022/06/17 13:45:31;;;;;;;13.73;6.32;;;;;;;;;;5070590;28;20055;-74
2022/06/17 13:47:59;;;;;;;15.30;5.78;;;;;;;;;;5083796;28;20043;-68
2022/06/17 13:50:32;;;;;;;12.65;5.80;;;;;;;;;;5087572;28;20044;-71
2022/06/17 13:53:04;;;;;;;11.10;5.30;;;;;;;;;;5090786;28;20449;-71
2022/06/17 13:55:42;;;;;;;11.63;5.40;;;;;;;;;;5082555;28;20052;-70
2022/06/17 13:58:17;;;;;;;13.15;5.35;;;;;;;;;;5086650;28;20070;-72
2022/06/17 14:00:48;;;;;;;11.98;5.38;;;;;;;;;;5067700;28;20044;-70
2022/06/17 14:03:15;;;;;;;12.35;5.38;;;;;;;;;;5089335;28;20044;-72
2022/06/17 14:05:51;;;;;;;14.57;5.43;;;;;;;;;;5083205;28;20127;-72
2022/06/17 14:08:18;;;;;;;14.52;5.30;;;;;;;;;;5082796;28;20071;-72
2022/06/17 14:10:56;;;;;;;14.80;5.82;;;;;;;;;;5078941;28;20044;-72
2022/06/17 14:13:28;;;;;;;12.75;5.00;;;;;;;;;;5096534;28;20055;-73
2022/06/17 14:16:04;;;;;;;15.15;5.93;;;;;;;;;;5053996;28;20051;-72
2022/06/17 14:18:44;;;;;;;17.58;5.50;;;;;;;;;;5084962;28;20135;-68
2022/06/17 14:21:13;;;;;;;12.38;5.75;;;;;;;;;;5085364;28;20484;-73
2022/06/17 14:23:45;;;;;;;12.10;6.13;;;;;;;;;;5081716;28;20048;-72
2022/06/17 14:26:12;;;;;;;12.98;5.40;;;;;;;;;;5083590;28;20056;-74
2022/06/17 14:28:41;;;;;;;12.85;5.32;;;;;;;;;;5090505;28;20101;-74
2022/06/17 14:31:22;;;;;;;14.35;6.35;;;;;;;;;;5085009;28;20391;-71
2022/06/17 14:33:54;;;;;;;15.45;5.50;;;;;;;;;;5082441;28;20048;-71
2022/06/17 14:36:39;;;;;;;12.52;5.75;;;;;;;;;;5089281;28;20055;-72
2022/06/17 14:39:09;;;;;;;12.05;5.55;;;;;;;;;;5083748;28;20044;-71
2022/06/17 14:44:28;;;;;;;13.63;5.28;;;;;;;;;;5102918;28;20052;-71
2022/06/17 14:47:14;;;;;;;11.30;5.03;;;;;;;;;;5100602;28;20062;-72
2022/06/17 14:49:42;;;;;;;16.03;5.70;;;;;;;;;;5088240;28;20052;-71
2022/06/17 14:52:20;;;;;;;14.73;6.07;;;;;;;;;;5089640;28;20059;-73
2022/06/17 14:54:56;;;;;;;14.88;5.60;;;;;;;;;;5088096;28;20052;-72
2022/06/17 14:57:24;;;;;;;12.98;5.38;;;;;;;;;;5069162;28;20040;-72
2022/06/17 14:59:50;;;;;;;13.75;5.60;;;;;;;;;;5095483;28;20055;-72
2022/06/17 15:02:21;;;;;;;9.88;4.72;;;;;;;;;;5086246;28;20047;-73
2022/06/17 15:04:55;;;;;;;9.88;5.05;;;;;;;;;;5097948;28;20056;-72